createdAt,value
2023-03-21T00:00:37.093Z,255.38
2023-03-21T00:01:37.036Z,254.99
2023-03-21T00:02:37.099Z,256.78
2023-03-21T00:03:37.055Z,257.98
2023-03-21T00:04:50.403Z,259.82
2023-03-21T00:05:37.187Z,260.23
2023-03-21T00:06:36.998Z,261.67
2023-03-21T00:07:36.945Z,263.77
2023-03-21T00:08:36.933Z,267.63
2023-03-21T00:09:36.914Z,269.38
2023-03-21T00:10:41.631Z,271.60
2023-03-21T00:11:36.933Z,272.73
2023-03-21T00:12:36.890Z,275.46
2023-03-21T00:13:36.935Z,276.85
2023-03-21T00:14:36.840Z,279.44
2023-03-21T00:15:44.242Z,279.91
2023-03-21T00:16:38.048Z,280.63
2023-03-21T00:17:36.846Z,281.59
2023-03-21T00:18:36.861Z,280.87
2023-03-21T00:19:36.817Z,282.55
2023-03-21T00:20:36.793Z,284.26
2023-03-21T00:21:46.571Z,282.31
2023-03-21T00:22:36.778Z,279.44
2023-03-21T00:23:36.788Z,282.80
2023-03-21T00:24:36.871Z,286.24
2023-03-21T00:25:36.969Z,290.79
2023-03-21T00:26:36.725Z,291.82
2023-03-21T00:34:15.259Z,292.33
2023-03-21T00:34:31.677Z,398.17
2023-03-21T00:35:53.437Z,364.48
2023-03-21T00:36:20.724Z,344.65
2023-03-21T00:37:20.738Z,335.18
2023-03-21T00:38:20.709Z,329.15
2023-03-21T00:39:20.700Z,323.65
2023-03-21T00:40:28.085Z,321.12
2023-03-21T00:41:35.051Z,321.12
2023-03-21T00:42:20.676Z,322.07
2023-03-21T00:43:20.648Z,320.81
2023-03-21T00:44:20.625Z,321.12
2023-03-21T00:45:20.679Z,322.07
2023-03-21T00:46:23.269Z,321.12
2023-03-21T00:47:20.647Z,319.26
2023-03-21T00:48:20.628Z,318.95
2023-03-21T00:49:20.590Z,320.81
2023-03-21T00:50:20.569Z,326.21
2023-03-21T00:51:20.530Z,326.54
2023-03-21T00:52:34.191Z,323.65
2023-03-21T00:53:20.523Z,326.54
2023-03-21T00:54:20.491Z,326.21
2023-03-21T00:55:20.485Z,327.51
2023-03-21T00:56:20.469Z,325.25
2023-03-21T00:57:29.308Z,323.01
2023-03-21T00:58:20.437Z,324.29
2023-03-21T00:59:20.435Z,321.44
2023-03-21T01:00:20.541Z,319.57
2023-03-21T01:01:20.398Z,318.95
2023-03-21T01:02:20.390Z,316.19
2023-03-21T01:03:24.893Z,312.29
2023-03-21T01:04:20.383Z,313.18
2023-03-21T01:05:20.364Z,313.48
2023-03-21T01:06:20.322Z,312.59
2023-03-21T01:07:20.321Z,312.59
2023-03-21T01:08:28.015Z,308.20
2023-03-21T01:09:20.290Z,310.23
2023-03-21T01:10:20.312Z,307.34
2023-03-21T01:11:20.288Z,309.94
2023-03-21T01:12:20.268Z,307.63
2023-03-21T01:13:20.242Z,307.91
2023-03-21T01:14:23.331Z,307.63
2023-03-21T01:15:20.220Z,308.20
2023-03-21T01:16:20.234Z,307.91
2023-03-21T01:17:20.204Z,306.77
2023-03-21T01:18:20.205Z,305.63
2023-03-21T01:19:40.712Z,305.34
2023-03-21T01:20:20.161Z,307.91
2023-03-21T01:21:20.200Z,307.63
2023-03-21T01:22:20.151Z,309.36
2023-03-21T01:23:20.103Z,311.11
2023-03-21T01:24:20.099Z,310.23
2023-03-21T01:25:22.569Z,309.94
2023-03-21T01:26:20.084Z,312.29
2023-03-21T01:27:20.077Z,309.94
2023-03-21T01:28:20.031Z,309.94
2023-03-21T01:29:20.079Z,311.11
2023-03-21T01:30:23.893Z,313.48
2023-03-21T01:31:20.051Z,314.08
2023-03-21T01:32:20.008Z,312.59
2023-03-21T01:33:19.982Z,313.78
2023-03-21T01:34:19.959Z,317.72
2023-03-21T01:35:19.997Z,321.44
2023-03-21T01:36:22.891Z,326.21
2023-03-21T01:37:19.973Z,327.18
2023-03-21T01:38:19.918Z,331.13
2023-03-21T01:39:19.915Z,330.47
2023-03-21T01:40:19.906Z,327.84
2023-03-21T01:41:20.374Z,329.15
2023-03-21T01:42:19.893Z,324.92
2023-03-21T01:43:19.842Z,326.86
2023-03-21T01:44:19.838Z,326.21
2023-03-21T01:45:19.864Z,323.65
2023-03-21T01:46:19.879Z,325.89
2023-03-21T01:47:19.802Z,324.61
2023-03-21T01:48:19.793Z,323.65
2023-03-21T01:49:19.782Z,323.65
2023-03-21T01:50:19.740Z,326.21
2023-03-21T01:51:19.754Z,328.16
2023-03-21T01:52:33.311Z,328.16
2023-03-21T01:53:19.776Z,329.48
2023-03-21T01:54:19.696Z,330.14
2023-03-21T01:55:19.675Z,328.16
2023-03-21T01:56:19.661Z,329.15
2023-03-21T01:57:19.897Z,327.18
2023-03-21T01:58:19.664Z,326.54
2023-03-21T01:59:19.651Z,327.51
2023-03-21T02:00:19.607Z,330.14
2023-03-21T02:01:19.664Z,331.80
2023-03-21T02:02:19.608Z,333.14
2023-03-21T02:03:33.237Z,333.14
2023-03-21T02:04:19.587Z,336.55
2023-03-21T02:05:19.552Z,335.86
2023-03-21T02:06:19.551Z,341.08
2023-03-21T02:07:19.531Z,342.85
2023-03-21T02:08:20.843Z,344.65
2023-03-21T02:09:19.510Z,347.56
2023-03-21T02:10:19.500Z,346.82
2023-03-21T02:11:19.510Z,347.56
2023-03-21T02:12:19.456Z,349.77
2023-03-21T02:13:19.471Z,351.26
2023-03-21T02:14:28.314Z,351.64
2023-03-21T02:15:19.455Z,354.29
2023-03-21T02:16:19.428Z,357.75
2023-03-21T02:17:19.423Z,359.70
2023-03-21T02:18:19.387Z,362.87
2023-03-21T02:19:25.949Z,362.47
2023-03-21T02:20:19.381Z,360.89
2023-03-21T02:21:19.393Z,357.36
2023-03-21T02:22:19.348Z,355.43
2023-03-21T02:23:19.354Z,353.52
2023-03-21T02:24:19.356Z,353.15
2023-03-21T02:25:22.126Z,350.89
2023-03-21T02:26:19.282Z,349.40
2023-03-21T02:27:19.284Z,350.52
2023-03-21T02:28:19.321Z,351.26
2023-03-21T02:29:19.266Z,349.77
2023-03-21T02:30:28.182Z,349.40
2023-03-21T02:31:19.299Z,349.40
2023-03-21T02:32:31.465Z,350.14
2023-03-21T02:33:19.214Z,349.03
2023-03-21T02:34:19.170Z,348.29
2023-03-21T02:35:19.195Z,345.37
2023-03-21T02:36:19.213Z,343.93
2023-03-21T02:37:21.380Z,341.79
2023-03-21T02:38:19.136Z,341.08
2023-03-21T02:39:19.140Z,340.37
2023-03-21T02:40:19.124Z,338.62
2023-03-21T02:41:20.022Z,335.52
2023-03-21T02:42:19.087Z,331.13
2023-03-21T02:43:23.278Z,327.18
2023-03-21T02:44:19.069Z,326.54
2023-03-21T02:45:19.050Z,322.70
2023-03-21T02:46:19.108Z,321.12
2023-03-21T02:47:19.073Z,321.12
2023-03-21T02:48:27.902Z,317.72
2023-03-21T02:49:18.986Z,316.80
2023-03-21T02:50:19.005Z,315.28
2023-03-21T02:51:19.036Z,310.23
2023-03-21T02:52:35.644Z,308.49
2023-03-21T02:53:18.972Z,308.78
2023-03-21T02:54:38.351Z,303.65
2023-03-21T02:55:18.931Z,303.38
2023-03-21T02:56:18.879Z,300.33
2023-03-21T02:57:18.915Z,296.28
2023-03-21T02:58:18.881Z,293.64
2023-03-21T02:59:18.859Z,293.64
2023-03-21T03:00:18.862Z,291.04
2023-03-21T03:01:18.895Z,285.24
2023-03-21T03:02:18.819Z,279.20
2023-03-21T03:03:33.027Z,277.09
2023-03-21T03:04:18.893Z,272.05
2023-03-21T03:05:22.166Z,265.26
2023-03-21T03:06:18.755Z,262.93
2023-03-21T03:07:18.753Z,258.59
2023-03-21T03:08:18.747Z,255.38
2023-03-21T03:09:18.719Z,253.23
2023-03-21T03:10:18.725Z,249.96
2023-03-21T03:11:18.694Z,247.51
2023-03-21T03:12:18.693Z,244.94
2023-03-21T03:13:18.687Z,241.35
2023-03-21T03:14:40.191Z,240.64
2023-03-21T03:15:18.658Z,236.67
2023-03-21T03:16:18.710Z,233.98
2023-03-21T03:17:18.616Z,230.38
2023-03-21T03:18:18.629Z,227.67
2023-03-21T03:19:18.611Z,223.04
2023-03-21T03:20:18.589Z,220.06
2023-03-21T03:21:18.594Z,216.87
2023-03-21T03:22:18.555Z,214.47
2023-03-21T03:23:18.594Z,213.64
2023-03-21T03:24:18.535Z,209.03
2023-03-21T03:25:25.042Z,206.80
2023-03-21T03:26:18.525Z,204.23
2023-03-21T03:27:18.496Z,200.99
2023-03-21T03:28:18.480Z,199.53
2023-03-21T03:29:18.497Z,197.38
2023-03-21T03:30:18.436Z,194.81
2023-03-21T03:31:20.820Z,190.97
2023-03-21T03:32:18.457Z,187.92
2023-03-21T03:33:18.414Z,186.22
2023-03-21T03:34:18.392Z,185.08
2023-03-21T03:35:18.407Z,182.66
2023-03-21T03:36:31.089Z,178.57
2023-03-21T03:37:18.362Z,174.66
2023-03-21T03:38:18.349Z,171.44
2023-03-21T03:39:18.346Z,167.84
2023-03-21T03:40:18.306Z,165.35
2023-03-21T03:41:19.503Z,163.10
2023-03-21T03:42:28.093Z,159.07
2023-03-21T03:43:18.318Z,155.09
2023-03-21T03:44:18.253Z,152.13
2023-03-21T03:45:18.300Z,147.97
2023-03-21T03:46:18.312Z,144.65
2023-03-21T03:47:32.002Z,140.28
2023-03-21T03:48:18.242Z,136.96
2023-03-21T03:49:18.212Z,134.00
2023-03-21T03:50:18.195Z,131.06
2023-03-21T03:51:18.262Z,126.80
2023-03-21T03:52:18.156Z,124.17
2023-03-21T03:53:18.818Z,120.68
2023-03-21T03:54:18.120Z,117.13
2023-03-21T03:55:18.145Z,114.18
2023-03-21T03:56:18.096Z,111.67
2023-03-21T03:57:18.127Z,108.41
2023-03-21T03:58:23.606Z,106.42
2023-03-21T03:59:18.087Z,103.52
2023-03-21T04:00:18.045Z,100.72
2023-03-21T04:01:18.057Z,98.82
2023-03-21T04:02:18.099Z,96.60
2023-03-21T04:03:18.035Z,94.10
2023-03-21T04:04:18.080Z,94.82
2023-03-21T04:05:18.017Z,93.44
2023-03-21T04:06:18.029Z,91.60
2023-03-21T04:07:17.959Z,90.03
2023-03-21T04:08:17.987Z,88.60
2023-03-21T04:09:23.334Z,87.31
2023-03-21T04:10:17.967Z,85.87
2023-03-21T04:11:17.942Z,84.49
2023-03-21T04:12:17.903Z,83.23
2023-03-21T04:13:17.916Z,82.08
2023-03-21T04:14:17.905Z,80.74
2023-03-21T04:15:18.012Z,80.12
2023-03-21T04:16:17.890Z,79.06
2023-03-21T04:17:17.862Z,77.81
2023-03-21T04:18:17.846Z,77.03
2023-03-21T04:19:17.835Z,76.12
2023-03-21T04:20:26.776Z,75.09
2023-03-21T04:21:17.821Z,74.49
2023-03-21T04:22:17.785Z,73.77
2023-03-21T04:23:17.752Z,73.13
2023-03-21T04:24:17.805Z,72.56
2023-03-21T04:25:30.774Z,71.44
2023-03-21T04:26:17.757Z,70.72
2023-03-21T04:27:17.810Z,70.30
2023-03-21T04:28:17.732Z,69.83
2023-03-21T04:29:17.711Z,69.03
2023-03-21T04:30:17.677Z,68.57
2023-03-21T04:31:25.428Z,67.91
2023-03-21T04:32:17.797Z,67.20
2023-03-21T04:33:17.656Z,66.72
2023-03-21T04:34:17.637Z,66.29
2023-03-21T04:35:17.618Z,66.14
2023-03-21T04:36:17.609Z,65.88
2023-03-21T04:37:17.630Z,65.11
2023-03-21T04:38:17.569Z,64.56
2023-03-21T04:39:17.567Z,64.21
2023-03-21T04:40:17.619Z,63.48
2023-03-21T04:41:17.516Z,63.34
2023-03-21T04:42:17.532Z,62.81
2023-03-21T04:43:17.514Z,62.44
2023-03-21T04:44:17.500Z,61.43
2023-03-21T04:45:17.481Z,61.30
2023-03-21T04:46:17.528Z,61.21
2023-03-21T04:47:17.526Z,60.81
2023-03-21T04:48:17.481Z,60.59
2023-03-21T04:49:17.438Z,60.37
2023-03-21T04:50:17.516Z,60.15
2023-03-21T04:51:17.419Z,59.72
2023-03-21T04:52:17.389Z,59.38
2023-03-21T04:53:17.369Z,59.47
2023-03-21T04:54:48.914Z,57.99
2023-03-21T04:55:53.478Z,58.07
2023-03-21T04:56:49.883Z,58.39
2023-03-21T04:57:49.880Z,58.23
2023-03-21T04:58:49.886Z,58.27
2023-03-21T04:59:49.853Z,58.27
2023-03-21T05:00:49.891Z,58.47
2023-03-21T05:01:49.836Z,58.15
2023-03-21T05:02:49.806Z,58.15
2023-03-21T05:03:49.837Z,57.79
2023-03-21T05:04:49.804Z,57.55
2023-03-21T05:05:49.804Z,57.39
2023-03-21T05:06:49.820Z,57.23
2023-03-21T05:07:49.737Z,56.96
2023-03-21T05:08:49.748Z,57.00
2023-03-21T05:09:49.715Z,56.62
2023-03-21T05:10:49.717Z,56.42
2023-03-21T05:11:49.718Z,56.12
2023-03-21T05:12:49.681Z,55.71
2023-03-21T05:13:49.670Z,55.27
2023-03-21T05:14:49.682Z,55.23
2023-03-21T05:15:49.632Z,54.91
2023-03-21T05:16:49.669Z,54.58
2023-03-21T05:17:49.628Z,54.09
2023-03-21T05:18:49.668Z,53.37
2023-03-21T05:19:49.580Z,53.17
2023-03-21T05:20:49.586Z,52.73
2023-03-21T05:21:49.580Z,52.37
2023-03-21T05:22:49.579Z,52.01
2023-03-21T05:23:49.536Z,51.24
2023-03-21T05:24:49.536Z,50.97
2023-03-21T05:25:49.610Z,50.50
2023-03-21T05:26:49.478Z,50.32
2023-03-21T05:27:49.494Z,49.87
2023-03-21T05:28:49.483Z,49.61
2023-03-21T05:29:49.444Z,49.55
2023-03-21T05:30:49.483Z,49.20
2023-03-21T05:31:49.422Z,49.00
2023-03-21T05:32:49.486Z,49.05
2023-03-21T05:33:49.425Z,48.80
2023-03-21T05:34:49.420Z,48.57
2023-03-21T05:35:49.405Z,48.65
2023-03-21T05:36:49.368Z,48.63
2023-03-21T05:37:49.396Z,48.18
2023-03-21T05:38:49.374Z,48.51
2023-03-21T05:39:49.339Z,48.21
2023-03-21T05:40:49.407Z,48.10
2023-03-21T05:41:49.304Z,47.88
2023-03-21T05:42:49.279Z,47.69
2023-03-21T05:43:49.294Z,47.55
2023-03-21T05:44:49.275Z,47.26
2023-03-21T05:45:49.286Z,47.26
2023-03-21T05:46:49.310Z,47.10
2023-03-21T05:47:49.263Z,47.04
2023-03-21T05:48:49.206Z,46.99
2023-03-21T05:49:49.197Z,46.89
2023-03-21T05:50:49.192Z,46.32
2023-03-21T05:51:49.171Z,46.52
2023-03-21T05:52:49.138Z,46.52
2023-03-21T05:53:49.133Z,46.16
2023-03-21T05:54:49.136Z,46.11
2023-03-21T05:55:49.122Z,45.86
2023-03-21T05:56:49.106Z,45.76
2023-03-21T05:57:49.097Z,45.66
2023-03-21T05:58:49.081Z,45.07
2023-03-21T05:59:49.075Z,45.27
2023-03-21T06:00:49.062Z,45.02
2023-03-21T06:01:49.060Z,44.64
2023-03-21T06:02:49.155Z,44.74
2023-03-21T06:03:49.017Z,44.45
2023-03-21T06:04:48.989Z,44.45
2023-03-21T06:05:49.023Z,44.12
2023-03-21T06:06:48.972Z,44.40
2023-03-21T06:07:48.980Z,43.98
2023-03-21T06:08:49.001Z,44.26
2023-03-21T06:09:48.936Z,43.94
2023-03-21T06:10:48.921Z,43.75
2023-03-21T06:11:48.917Z,43.85
2023-03-21T06:12:48.910Z,43.80
2023-03-21T06:13:48.940Z,43.80
2023-03-21T06:14:48.926Z,43.71
2023-03-21T06:15:48.892Z,43.66
2023-03-21T06:16:48.832Z,43.66
2023-03-21T06:17:48.941Z,43.48
2023-03-21T06:18:48.829Z,43.71
2023-03-21T06:19:48.829Z,43.35
2023-03-21T06:20:48.818Z,43.12
2023-03-21T06:21:48.785Z,43.12
2023-03-21T06:22:48.780Z,43.12
2023-03-21T06:23:48.758Z,42.60
2023-03-21T06:24:48.747Z,42.51
2023-03-21T06:25:48.753Z,42.60
2023-03-21T06:26:48.714Z,42.86
2023-03-21T06:27:48.710Z,42.43
2023-03-21T06:28:48.711Z,42.47
2023-03-21T06:29:48.706Z,42.34
2023-03-21T06:30:48.674Z,42.38
2023-03-21T06:31:48.658Z,42.47
2023-03-21T06:32:48.652Z,42.34
2023-03-21T06:33:48.615Z,42.00
2023-03-21T06:34:48.596Z,42.04
2023-03-21T06:35:48.654Z,42.25
2023-03-21T06:36:48.601Z,41.96
2023-03-21T06:37:48.634Z,41.83
2023-03-21T06:38:48.592Z,41.92
2023-03-21T06:39:48.641Z,41.58
2023-03-21T06:40:48.606Z,41.71
2023-03-21T06:41:48.548Z,41.83
2023-03-21T06:42:48.516Z,41.79
2023-03-21T06:43:48.520Z,41.58
2023-03-21T06:44:48.493Z,41.67
2023-03-21T06:45:48.517Z,41.54
2023-03-21T06:46:48.528Z,41.79
2023-03-21T06:47:48.474Z,41.79
2023-03-21T06:48:48.469Z,41.67
2023-03-21T06:49:48.448Z,41.30
2023-03-21T06:50:48.419Z,41.38
2023-03-21T06:51:48.442Z,41.58
2023-03-21T06:52:48.381Z,41.67
2023-03-21T06:53:48.393Z,41.42
2023-03-21T06:54:48.384Z,41.34
2023-03-21T06:55:48.383Z,41.46
2023-03-21T06:56:48.346Z,41.13
2023-03-21T06:57:48.302Z,41.26
2023-03-21T06:58:48.306Z,41.34
2023-03-21T06:59:48.289Z,41.22
2023-03-21T07:00:48.308Z,41.46
2023-03-21T07:01:48.318Z,41.54
2023-03-21T07:02:50.668Z,41.22
2023-03-21T07:03:48.237Z,41.42
2023-03-21T07:04:48.213Z,41.46
2023-03-21T07:05:48.218Z,41.79
2023-03-21T07:06:48.218Z,41.71
2023-03-21T07:07:48.318Z,41.50
2023-03-21T07:08:48.278Z,41.67
2023-03-21T07:09:48.490Z,41.67
2023-03-21T07:10:48.145Z,41.58
2023-03-21T07:11:48.150Z,41.62
2023-03-21T07:12:48.141Z,41.92
2023-03-21T07:13:48.079Z,41.67
2023-03-21T07:14:48.071Z,42.00
2023-03-21T07:15:48.132Z,41.96
2023-03-21T07:16:48.130Z,42.04
2023-03-21T07:17:48.037Z,42.13
2023-03-21T07:18:48.397Z,41.92
2023-03-21T07:19:48.074Z,41.92
2023-03-21T07:20:48.014Z,41.88
2023-03-21T07:21:48.016Z,41.71
2023-03-21T07:22:48.027Z,42.25
2023-03-21T07:23:48.004Z,41.83
2023-03-21T07:24:55.883Z,41.92
2023-03-21T07:25:47.984Z,42.08
2023-03-21T07:26:47.943Z,41.92
2023-03-21T07:27:47.942Z,41.96
2023-03-21T07:28:47.939Z,41.88
2023-03-21T07:29:47.915Z,42.04
2023-03-21T07:30:47.879Z,41.67
2023-03-21T07:31:47.949Z,41.38
2023-03-21T07:32:47.951Z,41.38
2023-03-21T07:33:47.878Z,41.13
2023-03-21T07:34:47.801Z,41.34
2023-03-21T07:35:47.870Z,41.10
2023-03-21T07:36:47.807Z,40.85
2023-03-21T07:37:47.794Z,40.66
2023-03-21T07:38:47.810Z,40.74
2023-03-21T07:39:47.796Z,40.15
2023-03-21T07:40:47.745Z,40.34
2023-03-21T07:41:47.744Z,40.00
2023-03-21T07:42:47.728Z,39.96
2023-03-21T07:43:47.726Z,39.73
2023-03-21T07:44:47.694Z,39.62
2023-03-21T07:45:47.722Z,39.36
2023-03-21T07:46:47.688Z,39.10
2023-03-21T07:47:47.663Z,38.99
2023-03-21T07:48:47.694Z,38.92
2023-03-21T07:49:47.645Z,38.78
2023-03-21T07:50:47.608Z,38.49
2023-03-21T07:51:47.626Z,38.35
2023-03-21T07:52:47.581Z,38.38
2023-03-21T07:53:47.574Z,38.42
2023-03-21T07:54:47.582Z,38.24
2023-03-21T07:55:47.557Z,38.21
2023-03-21T07:56:47.529Z,38.35
2023-03-21T07:57:47.503Z,37.93
2023-03-21T07:58:47.494Z,37.90
2023-03-21T07:59:47.496Z,37.76
2023-03-21T08:00:47.468Z,38.07
2023-03-21T08:01:47.509Z,37.93
2023-03-21T08:02:47.472Z,37.76
2023-03-21T08:03:48.182Z,38.00
2023-03-21T08:04:47.438Z,38.14
2023-03-21T08:05:47.401Z,38.24
2023-03-21T08:06:47.449Z,38.21
2023-03-21T08:07:47.380Z,38.17
2023-03-21T08:08:47.426Z,38.11
2023-03-21T08:09:47.352Z,38.31
2023-03-21T08:10:47.365Z,38.38
2023-03-21T08:11:47.352Z,38.21
2023-03-21T08:12:47.332Z,38.11
2023-03-21T08:13:47.298Z,38.17
2023-03-21T08:14:47.351Z,38.35
2023-03-21T08:15:47.278Z,38.35
2023-03-21T08:16:47.343Z,38.49
2023-03-21T08:17:47.243Z,38.31
2023-03-21T08:18:47.247Z,38.24
2023-03-21T08:19:47.251Z,38.38
2023-03-21T08:20:47.212Z,38.38
2023-03-21T08:21:47.198Z,38.49
2023-03-21T08:22:47.224Z,38.56
2023-03-21T08:23:47.197Z,38.49
2023-03-21T08:24:47.148Z,38.53
2023-03-21T08:25:47.145Z,38.49
2023-03-21T08:26:47.131Z,38.78
2023-03-21T08:27:47.138Z,38.56
2023-03-21T08:28:47.112Z,38.49
2023-03-21T08:29:47.084Z,38.70
2023-03-21T08:30:47.130Z,38.74
2023-03-21T08:31:47.077Z,38.96
2023-03-21T08:32:49.636Z,38.81
2023-03-21T08:33:47.059Z,38.99
2023-03-21T08:34:47.041Z,39.06
2023-03-21T08:35:47.214Z,38.99
2023-03-21T08:36:47.014Z,39.14
2023-03-21T08:37:47.039Z,39.06
2023-03-21T08:38:46.989Z,39.32
2023-03-21T08:39:47.012Z,39.21
2023-03-21T08:40:46.977Z,39.14
2023-03-21T08:41:46.936Z,38.99
2023-03-21T08:42:46.948Z,38.92
2023-03-21T08:43:46.897Z,38.53
2023-03-21T08:44:46.915Z,38.53
2023-03-21T08:45:46.908Z,38.21
2023-03-21T08:46:46.859Z,38.21
2023-03-21T08:47:46.929Z,38.14
2023-03-21T08:48:46.836Z,37.90
2023-03-21T08:49:46.824Z,37.73
2023-03-21T08:50:46.875Z,37.73
2023-03-21T08:51:46.782Z,37.80
2023-03-21T08:52:46.851Z,37.33
2023-03-21T08:53:46.757Z,37.39
2023-03-21T08:54:46.757Z,37.16
2023-03-21T08:55:46.744Z,37.03
2023-03-21T08:56:46.746Z,36.87
2023-03-21T08:57:46.704Z,36.74
2023-03-21T08:58:46.716Z,36.70
2023-03-21T08:59:46.697Z,36.39
2023-03-21T09:00:46.693Z,36.29
2023-03-21T09:01:46.749Z,36.42
2023-03-21T09:02:46.732Z,36.29
2023-03-21T09:03:46.654Z,36.13
2023-03-21T09:04:46.670Z,36.01
2023-03-21T09:05:46.596Z,36.07
2023-03-21T09:06:46.608Z,35.73
2023-03-21T09:07:46.591Z,35.70
2023-03-21T09:08:46.559Z,35.67
2023-03-21T09:09:53.490Z,35.79
2023-03-21T09:10:46.565Z,35.70
2023-03-21T09:11:46.546Z,35.83
2023-03-21T09:12:46.553Z,35.89
2023-03-21T09:13:46.514Z,35.52
2023-03-21T09:14:46.518Z,35.55
2023-03-21T09:15:46.508Z,35.83
2023-03-21T09:16:46.477Z,35.76
2023-03-21T09:17:46.441Z,35.79
2023-03-21T09:18:46.469Z,35.76
2023-03-21T09:19:46.424Z,36.01
2023-03-21T09:20:46.402Z,35.95
2023-03-21T09:21:46.392Z,36.20
2023-03-21T09:22:46.428Z,36.10
2023-03-21T09:23:46.400Z,36.45
2023-03-21T09:24:46.377Z,36.54
2023-03-21T09:25:46.369Z,36.80
2023-03-21T09:26:46.349Z,37.23
2023-03-21T09:27:46.320Z,37.29
2023-03-21T09:28:46.329Z,37.56
2023-03-21T09:29:46.349Z,38.04
2023-03-21T09:30:46.297Z,38.17
2023-03-21T09:31:46.310Z,38.63
2023-03-21T09:32:46.263Z,39.03
2023-03-21T09:33:46.259Z,39.62
2023-03-21T09:34:46.243Z,39.96
2023-03-21T09:35:46.251Z,40.62
2023-03-21T09:36:46.214Z,41.13
2023-03-21T09:37:46.192Z,41.67
2023-03-21T09:38:46.218Z,42.08
2023-03-21T09:39:46.171Z,42.34
2023-03-21T09:40:46.188Z,42.38
2023-03-21T09:41:46.138Z,42.34
2023-03-21T09:42:46.116Z,42.47
2023-03-21T09:43:46.157Z,42.86
2023-03-21T09:44:46.192Z,43.44
2023-03-21T09:45:46.110Z,43.75
2023-03-21T09:46:46.150Z,44.22
2023-03-21T09:47:49.257Z,44.69
2023-03-21T09:48:56.378Z,45.17
2023-03-21T09:49:46.134Z,45.66
2023-03-21T09:50:46.151Z,46.11
2023-03-21T09:51:46.045Z,46.73
2023-03-21T09:52:45.983Z,47.20
2023-03-21T09:53:46.083Z,48.07
2023-03-21T09:54:45.974Z,50.60
2023-03-21T09:55:45.960Z,52.43
2023-03-21T09:56:46.009Z,54.16
2023-03-21T09:57:45.938Z,55.38
2023-03-21T09:58:45.939Z,56.58
2023-03-21T09:59:45.941Z,58.84
2023-03-21T10:00:45.992Z,62.21
2023-03-21T10:01:45.891Z,65.16
2023-03-21T10:02:45.949Z,68.86
2023-03-21T10:03:45.850Z,72.81
2023-03-21T10:04:45.917Z,75.91
2023-03-21T10:05:45.953Z,80.43
2023-03-21T10:06:45.863Z,85.35
2023-03-21T10:07:45.932Z,89.93
2023-03-21T10:08:45.821Z,93.75
2023-03-21T10:09:45.811Z,94.53
2023-03-21T10:10:45.877Z,95.77
2023-03-21T10:11:46.083Z,99.88
2023-03-21T10:12:45.752Z,102.89
2023-03-21T10:13:45.729Z,105.28
2023-03-21T10:14:45.798Z,108.20
2023-03-21T10:15:45.738Z,112.34
2023-03-21T10:16:45.748Z,116.16
2023-03-21T10:17:45.680Z,120.42
2023-03-21T10:18:45.664Z,123.16
2023-03-21T10:19:45.624Z,124.17
2023-03-21T10:20:45.659Z,124.35
2023-03-21T10:22:00.264Z,125.66
2023-03-21T10:22:45.639Z,128.06
2023-03-21T10:23:45.581Z,129.24
2023-03-21T10:24:45.589Z,131.06
2023-03-21T10:25:45.585Z,132.31
2023-03-21T10:26:45.556Z,134.43
2023-03-21T10:27:45.514Z,137.18
2023-03-21T10:28:52.834Z,140.76
2023-03-21T10:29:45.519Z,142.55
2023-03-21T10:30:45.561Z,143.16
2023-03-21T10:31:45.519Z,144.40
2023-03-21T10:32:45.537Z,143.90
2023-03-21T10:33:45.446Z,146.16
2023-03-21T10:34:45.466Z,146.16
2023-03-21T10:35:45.446Z,149.29
2023-03-21T10:36:45.423Z,150.76
2023-03-21T10:37:45.425Z,152.55
2023-03-21T10:38:45.410Z,155.67
2023-03-21T10:39:45.394Z,157.42
2023-03-21T10:40:45.342Z,158.32
2023-03-21T10:41:45.320Z,162.31
2023-03-21T10:42:45.329Z,163.10
2023-03-21T10:43:45.344Z,164.05
2023-03-21T10:44:45.308Z,166.50
2023-03-21T10:45:45.326Z,169.19
2023-03-21T10:46:45.509Z,172.68
2023-03-21T10:47:45.593Z,175.95
2023-03-21T10:48:45.338Z,180.69
2023-03-21T10:50:06.317Z,184.27
2023-03-21T10:50:45.304Z,186.22
2023-03-21T10:51:46.262Z,189.32
2023-03-21T10:52:45.293Z,192.64
2023-03-21T10:53:45.167Z,192.87
2023-03-21T10:54:45.178Z,196.20
2023-03-21T10:55:45.145Z,195.04
2023-03-21T10:56:45.183Z,195.85
2023-03-21T10:57:45.121Z,198.09
2023-03-21T10:58:45.126Z,200.62
2023-03-21T10:59:45.092Z,205.25
2023-03-21T11:00:45.209Z,210.90
2023-03-21T11:01:45.123Z,210.90
2023-03-21T11:02:45.091Z,210.90
2023-03-21T11:03:45.061Z,213.50
2023-03-21T11:04:45.054Z,213.50
2023-03-21T11:05:45.038Z,217.16
2023-03-21T11:06:45.026Z,218.75
2023-03-21T11:07:44.999Z,220.80
2023-03-21T11:08:44.976Z,221.24
2023-03-21T11:09:44.951Z,220.50
2023-03-21T11:10:44.975Z,224.56
2023-03-21T11:11:44.952Z,229.73
2023-03-21T11:12:44.956Z,233.31
2023-03-21T11:13:44.922Z,239.07
2023-03-21T11:14:44.923Z,244.21
2023-03-21T11:15:44.881Z,251.29
2023-03-21T11:16:44.944Z,249.77
2023-03-21T11:17:44.854Z,254.20
2023-03-21T11:18:44.855Z,258.19
2023-03-21T11:19:44.822Z,261.67
2023-03-21T11:20:44.820Z,263.98
2023-03-21T11:21:44.802Z,270.71
2023-03-21T11:22:44.904Z,276.85
2023-03-21T11:23:44.812Z,280.39
2023-03-21T11:24:44.790Z,283.53
2023-03-21T11:25:44.746Z,286.73
2023-03-21T11:26:44.771Z,284.51
2023-03-21T11:27:44.760Z,283.04
2023-03-21T11:28:44.799Z,285.74
2023-03-21T11:29:44.726Z,284.51
2023-03-21T11:30:44.745Z,286.98
2023-03-21T11:31:44.709Z,288.49
2023-03-21T11:32:44.697Z,287.74
2023-03-21T11:33:44.642Z,287.99
2023-03-21T11:34:44.666Z,288.24
2023-03-21T11:35:44.691Z,289.25
2023-03-21T11:36:44.614Z,291.82
2023-03-21T11:37:44.628Z,291.82
2023-03-21T11:38:44.600Z,292.85
2023-03-21T11:39:44.597Z,293.90
2023-03-21T11:40:44.580Z,296.81
2023-03-21T11:41:44.555Z,301.16
2023-03-21T11:42:44.564Z,299.24
2023-03-21T11:43:44.533Z,299.79
2023-03-21T11:44:44.544Z,296.55
2023-03-21T11:45:44.570Z,295.75
2023-03-21T11:46:44.496Z,296.01
2023-03-21T11:47:44.508Z,294.42
2023-03-21T11:48:44.493Z,291.30
2023-03-21T11:49:44.431Z,290.02
2023-03-21T11:50:44.419Z,290.53
2023-03-21T11:51:44.420Z,287.74
2023-03-21T11:52:44.421Z,287.23
2023-03-21T11:53:44.401Z,287.99
2023-03-21T11:54:44.378Z,286.49
2023-03-21T11:55:44.361Z,286.73
2023-03-21T11:56:44.370Z,284.26
2023-03-21T11:57:44.329Z,289.25
2023-03-21T11:58:45.121Z,289.51
2023-03-21T11:59:44.317Z,295.48
2023-03-21T12:00:44.332Z,297.35
2023-03-21T12:01:44.300Z,298.43
2023-03-21T12:02:47.976Z,299.51
2023-03-21T12:03:48.504Z,298.43
2023-03-21T12:04:44.412Z,298.97
2023-03-21T12:05:44.228Z,305.06
2023-03-21T12:06:44.225Z,309.36
2023-03-21T12:07:44.208Z,314.08
2023-03-21T12:08:44.189Z,316.49
2023-03-21T12:09:44.235Z,319.88
2023-03-21T12:10:44.183Z,325.57
2023-03-21T12:11:44.185Z,328.82
2023-03-21T12:12:44.158Z,336.89
2023-03-21T12:13:44.254Z,344.29
2023-03-21T12:14:44.119Z,349.03
2023-03-21T12:15:44.180Z,351.26
2023-03-21T12:16:44.140Z,356.97
2023-03-21T12:17:44.109Z,371.05
2023-03-21T12:18:44.177Z,388.69
2023-03-21T12:19:44.068Z,392.57
2023-03-21T12:20:44.026Z,397.94
2023-03-21T12:21:44.024Z,402.00
2023-03-21T12:22:44.007Z,403.45
2023-03-21T12:23:43.998Z,406.64
2023-03-21T12:24:43.996Z,410.63
2023-03-21T12:25:44.003Z,415.99
2023-03-21T12:26:43.958Z,418.59
2023-03-21T12:27:44.514Z,415.73
2023-03-21T12:28:43.931Z,412.15
2023-03-21T12:29:43.908Z,410.63
2023-03-21T12:30:43.952Z,413.17
2023-03-21T12:31:43.935Z,417.03
2023-03-21T12:32:43.890Z,416.51
2023-03-21T12:33:43.847Z,411.89
2023-03-21T12:34:43.850Z,411.39
2023-03-21T12:35:43.883Z,412.40
2023-03-21T12:36:43.820Z,413.42
2023-03-21T12:37:43.889Z,416.25
2023-03-21T12:38:43.799Z,413.42
2023-03-21T12:39:43.803Z,410.13
2023-03-21T12:40:43.788Z,407.14
2023-03-21T12:41:43.759Z,402.73
2023-03-21T12:42:43.739Z,403.21
2023-03-21T12:43:43.723Z,401.52
2023-03-21T12:44:43.947Z,403.94
2023-03-21T12:45:47.594Z,403.21
2023-03-21T12:46:43.784Z,404.67